Time;durP1;ratioP1;P1;durP2;ratioP2;P2;SDS_P1;SDS_P2;PMS_P1;PMS_P2;Temp;Humidity;BMP_temperature;BMP_pressure;BME280_temperature;BME280_humidity;BME280_pressure;Samples;Min_cycle;Max_cycle;Signal;HPM_P1;HPM_P2
2023/12/28 00:01:45;;;;;;;2.77;2.37;;;;;;;20.34;51.78;97656.66;5012884;28;20651;-27
2023/12/28 00:04:12;;;;;;;3.03;2.30;;;;;;;20.34;51.55;97656.66;5013402;28;20339;-27
2023/12/28 00:06:39;;;;;;;4.20;2.67;;;;;;;20.34;51.87;97661.75;5013727;28;20211;-26
2023/12/28 00:09:07;;;;;;;4.07;2.57;;;;;;;20.34;52.00;97666.03;5007271;28;20317;-31
2023/12/28 00:11:38;;;;;;;4.07;3.00;;;;;;;20.07;51.85;97617.34;5009483;28;20301;-26
2023/12/28 00:14:04;;;;;;;3.80;2.67;;;;;;;20.33;51.94;97669.38;5012675;28;20218;-27
2023/12/28 00:16:36;;;;;;;3.03;2.70;;;;;;;20.33;51.89;97664.25;5013431;28;20301;-26
2023/12/28 00:19:04;;;;;;;3.77;2.80;;;;;;;20.32;51.94;97655.75;5013230;28;20210;-26
2023/12/28 00:21:31;;;;;;;4.00;2.90;;;;;;;20.31;51.74;97651.44;5013196;28;20206;-26
2023/12/28 00:23:58;;;;;;;4.77;3.00;;;;;;;20.31;51.96;97651.44;5012666;28;20253;-26
2023/12/28 00:26:24;;;;;;;3.00;2.40;;;;;;;20.32;51.87;97659.97;5012928;28;20210;-28
2023/12/28 00:28:51;;;;;;;3.10;2.50;;;;;;;20.31;51.99;97650.59;5012593;28;20208;-27
2023/12/28 00:31:17;;;;;;;3.37;2.70;;;;;;;20.32;51.99;97659.97;5006732;28;20202;-26
2023/12/28 00:33:44;;;;;;;3.60;2.80;;;;;;;20.31;52.08;97663.34;5012739;28;20237;-26
2023/12/28 00:36:11;;;;;;;3.27;2.63;;;;;;;20.31;52.12;97660.81;5012851;28;20213;-27
2023/12/28 00:38:38;;;;;;;3.80;2.63;;;;;;;20.31;52.26;97659.09;5013070;28;20649;-26
2023/12/28 00:41:04;;;;;;;3.30;2.70;;;;;;;20.29;51.82;97658.19;5012380;28;20202;-29
2023/12/28 00:43:31;;;;;;;3.17;2.60;;;;;;;20.30;52.14;97657.38;5012756;28;20222;-28
2023/12/28 00:45:57;;;;;;;3.00;2.70;;;;;;;20.30;52.10;97654.81;5012478;28;20218;-26
2023/12/28 00:48:24;;;;;;;3.33;2.77;;;;;;;20.30;52.01;97659.03;5012525;28;20206;-31
2023/12/28 00:50:52;;;;;;;3.83;2.60;;;;;;;20.30;52.15;97659.94;5012494;28;20206;-28
2023/12/28 00:53:19;;;;;;;3.00;2.50;;;;;;;20.30;52.01;97666.69;5012208;28;20230;-28
2023/12/28 00:55:46;;;;;;;4.87;2.90;;;;;;;20.29;52.20;97660.75;5012788;28;20210;-26
2023/12/28 00:58:13;;;;;;;3.07;2.77;;;;;;;20.29;52.08;97672.63;5012699;28;20206;-26
2023/12/28 01:00:39;;;;;;;3.33;3.00;;;;;;;20.29;52.03;97681.16;5012172;28;20260;-26
2023/12/28 01:03:06;;;;;;;3.03;2.73;;;;;;;20.29;52.20;97686.28;5012550;28;20286;-28
2023/12/28 01:05:32;;;;;;;3.20;2.90;;;;;;;20.29;52.31;97688.81;5012862;28;20260;-26
2023/12/28 01:07:59;;;;;;;3.63;3.13;;;;;;;20.29;52.08;97687.94;5011499;28;20214;-26
2023/12/28 01:10:26;;;;;;;3.43;2.80;;;;;;;20.28;52.23;97692.16;5012172;28;20590;-28
2023/12/28 01:12:53;;;;;;;3.87;3.03;;;;;;;20.28;52.32;97686.22;5011685;28;20241;-26
2023/12/28 01:15:20;;;;;;;3.67;2.70;;;;;;;20.28;52.10;97678.56;5012023;28;20244;-33
2023/12/28 01:17:47;;;;;;;3.10;2.53;;;;;;;20.28;52.03;97683.66;5012189;28;20237;-30
2023/12/28 01:20:14;;;;;;;3.37;2.60;;;;;;;20.28;52.20;97679.41;5012427;28;20204;-26
2023/12/28 01:22:40;;;;;;;3.00;2.70;;;;;;;20.28;52.27;97683.66;5011955;28;20213;-26
2023/12/28 01:25:07;;;;;;;4.30;2.90;;;;;;;20.26;52.21;97691.25;5011974;28;21762;-26
2023/12/28 01:27:34;;;;;;;2.83;2.53;;;;;;;20.28;52.39;97696.44;5012041;28;20657;-26
2023/12/28 01:30:00;;;;;;;3.80;2.90;;;;;;;20.27;52.36;97690.44;5011171;28;20206;-26
2023/12/28 01:32:27;;;;;;;3.50;2.77;;;;;;;20.27;52.18;97700.66;5012197;28;20260;-31
2023/12/28 01:34:53;;;;;;;3.77;2.87;;;;;;;20.28;52.18;97712.59;5011755;28;20226;-31
2023/12/28 01:37:20;;;;;;;4.00;3.10;;;;;;;20.27;52.15;97708.31;5011642;28;20304;-26
2023/12/28 01:39:46;;;;;;;3.47;3.07;;;;;;;20.26;52.13;97701.47;5011964;28;20269;-26
2023/12/28 01:42:13;;;;;;;2.80;2.60;;;;;;;20.27;52.24;97703.19;5011366;28;20237;-31
2023/12/28 01:44:40;;;;;;;4.43;3.30;;;;;;;20.27;52.20;97698.09;5006824;28;20313;-27
2023/12/28 01:47:06;;;;;;;3.17;2.87;;;;;;;20.27;52.29;97704.88;5006657;28;20235;-26
2023/12/28 01:49:33;;;;;;;2.93;2.63;;;;;;;20.27;52.33;97705.75;5008383;28;20202;-26
2023/12/28 01:52:00;;;;;;;3.83;2.90;;;;;;;20.24;52.30;97703.09;5011157;28;20210;-29
2023/12/28 01:54:27;;;;;;;3.20;2.80;;;;;;;20.26;52.14;97691.25;4990795;28;20743;-26
2023/12/28 01:56:54;;;;;;;3.53;2.90;;;;;;;20.27;52.22;97693.00;5009292;28;20253;-31
2023/12/28 01:59:20;;;;;;;3.37;2.93;;;;;;;20.23;52.15;97688.59;5012098;28;20222;-27
2023/12/28 02:01:48;;;;;;;3.07;2.77;;;;;;;20.27;52.22;97690.44;5006665;28;20277;-26
2023/12/28 02:04:15;;;;;;;3.70;3.07;;;;;;;20.28;52.01;97696.44;5010624;28;20221;-27
2023/12/28 02:06:41;;;;;;;3.27;2.87;;;;;;;20.27;52.16;97679.34;5011099;28;20729;-26
2023/12/28 02:09:08;;;;;;;3.97;3.10;;;;;;;20.25;52.48;97681.00;5012327;28;20595;-26
2023/12/28 02:11:35;;;;;;;3.30;2.57;;;;;;;20.27;52.27;97687.88;5011631;28;20268;-27
2023/12/28 02:14:01;;;;;;;4.30;3.20;;;;;;;20.27;52.17;97689.56;5010292;28;20288;-26
2023/12/28 02:16:36;;;;;;;3.53;2.83;;;;;;;20.27;52.16;97694.66;5008124;28;20260;-26
2023/12/28 02:19:09;;;;;;;3.37;3.07;;;;;;;20.28;52.17;97706.63;5008531;28;20198;-32
2023/12/28 02:21:35;;;;;;;3.17;2.83;;;;;;;20.28;52.28;97698.97;5010468;28;20234;-27
2023/12/28 02:24:02;;;;;;;4.27;2.87;;;;;;;20.26;52.16;97698.91;5014977;28;20214;-29
2023/12/28 02:26:29;;;;;;;3.43;3.13;;;;;;;20.28;52.10;97701.53;5019561;28;20217;-26
2023/12/28 02:28:55;;;;;;;3.00;2.70;;;;;;;20.28;51.92;97688.78;5011396;28;20268;-30
2023/12/28 02:31:35;;;;;;;4.30;2.93;;;;;;;20.30;52.07;97688.00;5012772;28;20202;-26
2023/12/28 02:34:06;;;;;;;3.17;2.87;;;;;;;20.30;52.12;97685.44;5009801;28;20316;-27
2023/12/28 02:36:33;;;;;;;3.53;3.00;;;;;;;20.32;52.06;97681.28;5010970;28;20289;-26
2023/12/28 02:39:01;;;;;;;3.20;2.90;;;;;;;20.28;52.03;97671.75;5007370;28;20209;-29
2023/12/28 02:41:28;;;;;;;3.37;3.07;;;;;;;20.31;51.94;97679.53;4991556;28;20238;-26
2023/12/28 02:43:54;;;;;;;3.50;3.20;;;;;;;20.30;52.06;97682.91;5013712;28;20254;-27
2023/12/28 02:46:21;;;;;;;2.97;2.67;;;;;;;20.31;52.48;97678.69;5007066;28;20237;-26
2023/12/28 02:48:49;;;;;;;3.70;3.00;;;;;;;20.28;52.06;97681.97;5012498;28;20206;-27
2023/12/28 02:51:16;;;;;;;3.67;2.77;;;;;;;20.29;52.06;97685.38;5013062;28;20217;-26
2023/12/28 02:53:43;;;;;;;2.93;2.67;;;;;;;20.28;52.02;97688.78;5014605;28;20292;-27
2023/12/28 02:56:09;;;;;;;3.43;2.80;;;;;;;20.27;52.15;97690.44;5014706;28;20218;-26
2023/12/28 02:58:36;;;;;;;3.70;3.10;;;;;;;20.26;52.14;97688.72;5015066;28;20214;-26
2023/12/28 03:01:03;;;;;;;3.10;2.80;;;;;;;20.26;52.28;97688.72;5014276;28;20202;-26
2023/12/28 03:03:29;;;;;;;3.20;2.70;;;;;;;20.25;52.37;97692.06;5014465;28;20226;-27
2023/12/28 03:05:56;;;;;;;3.40;2.73;;;;;;;20.26;52.19;97695.50;5012849;28;20302;-26
2023/12/28 03:08:23;;;;;;;3.73;2.80;;;;;;;20.26;52.19;97692.94;5005642;28;20268;-29
2023/12/28 03:10:49;;;;;;;2.80;2.50;;;;;;;20.25;52.30;97688.66;5014890;28;20241;-27
2023/12/28 03:13:16;;;;;;;3.43;2.90;;;;;;;20.25;52.36;97691.22;5014325;28;20256;-27
2023/12/28 03:15:43;;;;;;;3.23;2.93;;;;;;;20.25;52.35;97686.09;5014750;28;20253;-32
2023/12/28 03:18:10;;;;;;;3.30;3.00;;;;;;;20.25;52.27;97692.06;5010950;28;20198;-27
2023/12/28 03:20:37;;;;;;;3.97;3.00;;;;;;;20.25;52.22;97689.50;5013772;28;20677;-26
2023/12/28 03:23:04;;;;;;;3.40;2.73;;;;;;;20.26;52.28;97693.81;5014009;28;20226;-28
2023/12/28 03:25:31;;;;;;;3.27;2.90;;;;;;;20.28;52.00;97693.88;5013762;28;20728;-26
2023/12/28 03:27:57;;;;;;;3.77;3.03;;;;;;;20.28;52.24;97692.16;5014302;28;20268;-29
2023/12/28 03:30:24;;;;;;;3.37;3.03;;;;;;;20.30;52.47;97699.88;5013706;28;20206;-26
2023/12/28 03:32:51;;;;;;;4.20;3.10;;;;;;;20.28;52.30;97707.47;5014360;28;20217;-27
2023/12/28 03:35:18;;;;;;;3.93;3.27;;;;;;;20.30;52.28;97707.53;5013131;28;20222;-32
2023/12/28 03:37:44;;;;;;;3.57;3.13;;;;;;;20.29;52.16;97708.38;5008824;28;20657;-26
2023/12/28 03:40:11;;;;;;;3.20;2.90;;;;;;;20.29;52.36;97700.72;5011577;28;20266;-26
2023/12/28 03:42:38;;;;;;;3.77;2.97;;;;;;;20.28;52.30;97696.44;5013795;28;20198;-28
2023/12/28 03:45:05;;;;;;;3.10;2.80;;;;;;;20.27;52.10;97690.44;5013667;28;20202;-26
2023/12/28 03:47:32;;;;;;;3.07;2.77;;;;;;;20.28;52.12;97687.06;5014345;28;20210;-26
2023/12/28 03:49:58;;;;;;;4.03;3.20;;;;;;;20.18;52.11;97668.81;5014129;28;20571;-29
2023/12/28 03:52:26;;;;;;;3.33;3.03;;;;;;;20.26;52.20;97693.81;5012697;28;20209;-26
2023/12/28 03:54:52;;;;;;;3.73;2.70;;;;;;;20.28;52.22;97696.44;5012941;28;20300;-27
2023/12/28 03:57:19;;;;;;;3.57;2.80;;;;;;;20.27;52.26;97697.22;5007702;28;20199;-27
2023/12/28 03:59:47;;;;;;;3.47;3.17;;;;;;;20.26;52.36;97692.94;5011935;28;20206;-26
2023/12/28 04:02:14;;;;;;;3.23;2.63;;;;;;;20.27;52.36;97687.00;5011960;28;20213;-26
2023/12/28 04:04:40;;;;;;;3.43;3.13;;;;;;;20.27;52.01;97698.09;5008558;28;20226;-26
2023/12/28 04:07:07;;;;;;;3.07;2.83;;;;;;;20.27;52.15;97695.53;5013200;28;20198;-28
2023/12/28 04:09:34;;;;;;;3.60;3.00;;;;;;;20.28;52.18;97699.81;5013252;28;20202;-27
2023/12/28 04:12:01;;;;;;;3.30;3.00;;;;;;;20.28;52.08;97704.09;5012518;28;20201;-26
2023/12/28 04:14:27;;;;;;;2.93;2.63;;;;;;;20.29;51.90;97700.72;5012636;28;20222;-29
2023/12/28 04:16:54;;;;;;;3.03;2.80;;;;;;;20.31;52.14;97714.41;5006574;28;20204;-28
2023/12/28 04:19:21;;;;;;;3.10;2.80;;;;;;;20.31;52.18;97710.16;5005813;28;20211;-26
2023/12/28 04:21:47;;;;;;;2.93;2.70;;;;;;;20.32;52.11;97716.13;5008089;28;20198;-32
2023/12/28 04:24:14;;;;;;;3.40;3.10;;;;;;;20.31;52.22;97710.16;5001127;28;20223;-26
2023/12/28 04:26:41;;;;;;;3.13;2.83;;;;;;;20.32;52.32;97719.56;5010882;28;20203;-26
2023/12/28 04:29:07;;;;;;;3.30;3.00;;;;;;;20.31;52.24;97714.41;5008859;28;20198;-26
2023/12/28 04:31:39;;;;;;;3.77;3.37;;;;;;;20.30;52.23;97703.31;5009889;28;20206;-30
2023/12/28 04:34:05;;;;;;;3.53;3.23;;;;;;;20.21;52.13;97697.88;5010391;28;20224;-26
2023/12/28 04:36:32;;;;;;;3.03;2.73;;;;;;;20.30;52.17;97712.66;5008612;28;20214;-29
2023/12/28 04:38:59;;;;;;;3.27;2.93;;;;;;;20.28;52.17;97709.19;5012084;28;20260;-29
2023/12/28 04:41:25;;;;;;;3.23;2.80;;;;;;;20.28;52.28;97710.03;5010934;28;20225;-26
2023/12/28 04:43:52;;;;;;;3.10;2.80;;;;;;;20.27;52.33;97708.31;5005697;28;20227;-26
2023/12/28 04:46:19;;;;;;;3.40;3.07;;;;;;;20.28;52.41;97709.19;5009536;28;20260;-28
2023/12/28 04:48:46;;;;;;;3.40;3.10;;;;;;;20.28;52.28;97699.81;5010114;28;20202;-26
2023/12/28 04:51:12;;;;;;;3.00;2.70;;;;;;;20.26;52.23;97704.03;5004843;28;20237;-26
2023/12/28 04:53:39;;;;;;;3.40;3.10;;;;;;;20.27;52.19;97703.19;4999863;28;20238;-28
2023/12/28 04:56:06;;;;;;;3.00;2.70;;;;;;;20.29;52.15;97711.78;4995851;28;20273;-27
2023/12/28 04:58:32;;;;;;;2.90;2.70;;;;;;;20.29;51.94;97711.78;5007381;28;20206;-29
2023/12/28 05:01:01;;;;;;;3.50;3.20;;;;;;;20.30;52.06;97708.41;4999343;28;20260;-29
2023/12/28 05:03:28;;;;;;;3.70;3.10;;;;;;;20.32;52.07;97718.69;5004924;28;20250;-26
2023/12/28 05:05:55;;;;;;;3.50;3.20;;;;;;;20.33;52.00;97713.63;5004067;28;20209;-26
2023/12/28 05:08:21;;;;;;;4.10;3.00;;;;;;;20.32;52.13;97717.00;5003627;28;20277;-31
2023/12/28 05:10:48;;;;;;;3.40;3.10;;;;;;;20.31;52.15;97720.34;5003175;28;20241;-26
2023/12/28 05:13:14;;;;;;;3.10;2.80;;;;;;;20.32;51.98;97728.91;5010359;28;20254;-26
2023/12/28 05:15:41;;;;;;;2.60;2.40;;;;;;;20.31;52.06;97737.38;5011557;28;20579;-26
2023/12/28 05:18:08;;;;;;;3.30;3.00;;;;;;;20.31;52.18;97722.91;5007822;28;20270;-27
2023/12/28 05:20:35;;;;;;;3.30;2.80;;;;;;;20.32;51.97;97726.34;5002930;28;20210;-26
2023/12/28 05:23:02;;;;;;;3.13;2.83;;;;;;;20.31;52.05;97715.25;5006963;28;20219;-30
2023/12/28 05:25:28;;;;;;;3.93;2.97;;;;;;;20.29;52.13;97704.13;5009863;28;20257;-26
2023/12/28 05:27:55;;;;;;;3.30;3.00;;;;;;;20.29;52.11;97719.44;5009271;28;20427;-27
2023/12/28 05:30:22;;;;;;;3.57;3.00;;;;;;;20.29;52.00;97714.34;5010708;28;20211;-28
2023/12/28 05:32:49;;;;;;;4.60;3.10;;;;;;;20.29;52.23;97709.25;5009131;28;20213;-26
2023/12/28 05:35:15;;;;;;;2.97;2.70;;;;;;;20.29;52.06;97711.78;5010093;28;20222;-26
2023/12/28 05:37:42;;;;;;;3.30;3.00;;;;;;;20.30;51.99;97712.66;5001985;28;20209;-26
2023/12/28 05:40:09;;;;;;;3.17;2.87;;;;;;;20.28;51.96;97711.75;5008257;28;20253;-27
2023/12/28 05:42:37;;;;;;;2.70;2.50;;;;;;;20.31;51.90;97717.81;5005872;28;20198;-26
2023/12/28 05:45:04;;;;;;;2.93;2.63;;;;;;;20.27;51.76;97703.19;5006376;28;20209;-26
2023/12/28 05:47:30;;;;;;;2.77;2.53;;;;;;;20.32;51.78;97722.13;5008101;28;20352;-26
2023/12/28 05:49:57;;;;;;;2.70;2.50;;;;;;;20.33;51.91;97720.41;5002172;28;20231;-27
2023/12/28 05:52:24;;;;;;;3.30;3.00;;;;;;;20.33;51.92;97734.06;4998679;28;20207;-27
2023/12/28 05:54:50;;;;;;;3.00;2.70;;;;;;;20.33;51.95;97744.25;5005284;28;20226;-26
2023/12/28 05:57:17;;;;;;;3.03;2.77;;;;;;;20.32;51.90;97723.78;5008372;28;20216;-26
2023/12/28 05:59:44;;;;;;;3.30;2.83;;;;;;;20.32;51.75;97727.22;5010656;28;20210;-27
2023/12/28 06:02:10;;;;;;;3.33;3.03;;;;;;;20.33;51.72;97720.41;5010033;28;20199;-26
2023/12/28 06:04:37;;;;;;;2.77;2.57;;;;;;;20.32;51.73;97717.00;5008466;28;20272;-26
2023/12/28 06:07:04;;;;;;;3.03;2.77;;;;;;;20.30;51.78;97708.41;5012089;28;20202;-26
2023/12/28 06:09:31;;;;;;;2.87;2.67;;;;;;;20.31;51.93;97719.50;5011959;28;20728;-26
2023/12/28 06:11:58;;;;;;;3.20;2.90;;;;;;;20.31;51.93;97709.28;5010230;28;20687;-29
2023/12/28 06:14:24;;;;;;;3.17;2.87;;;;;;;20.31;51.76;97724.63;5009011;28;20230;-26
2023/12/28 06:16:51;;;;;;;3.10;2.80;;;;;;;20.30;51.67;97731.38;5014796;28;20225;-26
2023/12/28 06:19:17;;;;;;;2.90;2.70;;;;;;;20.31;52.14;97735.66;5015493;28;20203;-26
2023/12/28 06:21:44;;;;;;;3.03;2.73;;;;;;;20.31;51.45;97742.47;5015302;28;20595;-26
2023/12/28 06:24:11;;;;;;;3.10;2.80;;;;;;;20.32;51.75;97741.66;5014240;28;20234;-26
2023/12/28 06:26:44;;;;;;;2.67;2.47;;;;;;;20.34;51.85;97740.03;5013653;23;20590;-25
2023/12/28 06:29:11;;;;;;;3.17;2.97;;;;;;;20.33;51.73;97734.06;4994941;28;20595;-25
2023/12/28 06:31:37;;;;;;;3.30;3.00;;;;;;;20.35;52.08;97723.91;4990382;28;20360;-25
2023/12/28 06:34:04;;;;;;;3.60;3.17;;;;;;;20.35;51.74;97718.78;4983583;28;20239;-25
2023/12/28 06:36:32;;;;;;;2.83;2.63;;;;;;;20.35;51.72;97717.13;4993032;28;20222;-25
2023/12/28 06:38:58;;;;;;;3.43;3.13;;;;;;;20.34;51.63;97707.72;4994698;28;20603;-25
2023/12/28 06:41:25;;;;;;;2.80;2.60;;;;;;;20.34;51.78;97706.84;4993892;28;20290;-25
2023/12/28 06:43:52;;;;;;;2.90;2.70;;;;;;;20.34;51.86;97724.72;4990128;28;20208;-25
2023/12/28 06:46:19;;;;;;;2.83;2.53;;;;;;;20.34;51.66;97727.28;4990867;28;20764;-35
2023/12/28 06:48:46;;;;;;;2.97;2.77;;;;;;;20.33;51.79;97718.75;4989500;28;20582;-25
2023/12/28 06:51:18;;;;;;;3.23;2.83;;;;;;;20.33;51.80;97713.63;4978169;28;20319;-33
2023/12/28 06:53:45;;;;;;;2.77;2.57;;;;;;;20.33;51.72;97718.75;4992343;28;20210;-25
2023/12/28 06:56:12;;;;;;;2.93;2.73;;;;;;;20.33;51.75;97733.16;4987191;28;20757;-25
2023/12/28 06:58:39;;;;;;;3.47;3.17;;;;;;;20.31;51.80;97733.13;4992342;28;20206;-25
2023/12/28 07:01:05;;;;;;;3.27;2.97;;;;;;;20.32;51.99;97745.09;4992437;28;20282;-25
2023/12/28 07:03:32;;;;;;;2.87;2.67;;;;;;;20.32;51.85;97742.53;4990969;28;20289;-25
2023/12/28 07:05:59;;;;;;;3.10;2.80;;;;;;;20.33;51.67;97749.38;4993527;28;20222;-25
2023/12/28 07:08:26;;;;;;;2.90;2.60;;;;;;;20.34;51.40;97757.91;4989251;28;20584;-25
2023/12/28 07:10:53;;;;;;;3.00;2.70;;;;;;;20.34;51.43;97753.66;4992876;28;20207;-25
2023/12/28 07:13:19;;;;;;;2.90;2.70;;;;;;;20.34;51.40;97758.75;4991044;28;20745;-25
2023/12/28 07:15:46;;;;;;;3.00;2.80;;;;;;;20.35;51.78;97760.53;4992000;28;20285;-25
2023/12/28 07:18:12;;;;;;;3.13;2.70;;;;;;;20.36;51.92;97761.38;4992673;28;20209;-25
2023/12/28 07:20:39;;;;;;;3.17;2.87;;;;;;;20.36;51.57;97763.91;4989159;28;20207;-25
2023/12/28 07:23:06;;;;;;;3.00;2.70;;;;;;;20.36;51.64;97761.38;4992721;28;20662;-32
2023/12/28 07:25:33;;;;;;;3.17;2.87;;;;;;;20.35;51.89;97762.19;4991563;28;20235;-25
2023/12/28 07:27:59;;;;;;;3.10;2.73;;;;;;;20.35;51.46;97759.63;4984472;28;20230;-25
2023/12/28 07:30:27;;;;;;;2.80;2.60;;;;;;;20.35;51.70;97764.75;4985085;28;20226;-25
2023/12/28 07:32:54;;;;;;;2.93;2.73;;;;;;;20.34;51.93;97763.84;4989953;28;20215;-25
2023/12/28 07:35:21;;;;;;;5.10;4.60;;;;;;;20.33;46.68;97769.78;4993286;28;20230;-25
2023/12/28 07:37:48;;;;;;;9.30;7.10;;;;;;;20.30;41.70;97766.25;4993207;28;20203;-27
2023/12/28 07:40:14;;;;;;;9.27;7.40;;;;;;;20.28;41.50;97763.63;4993293;28;20334;-25
2023/12/28 07:42:41;;;;;;;9.47;8.27;;;;;;;20.27;42.16;97753.38;4993721;28;20231;-25
2023/12/28 07:45:08;;;;;;;10.33;7.57;;;;;;;20.28;43.42;97755.13;4991724;28;20227;-25
2023/12/28 07:47:34;;;;;;;8.80;7.23;;;;;;;20.29;44.28;97764.50;4993221;28;20277;-25
2023/12/28 07:50:02;;;;;;;7.50;6.77;;;;;;;20.30;44.86;97771.34;4993047;28;20207;-25
2023/12/28 07:52:29;;;;;;;7.80;6.80;;;;;;;20.29;45.44;97764.50;4990901;28;20203;-25
2023/12/28 07:54:55;;;;;;;9.30;6.83;;;;;;;20.29;46.42;97773.06;4989985;28;20262;-25
2023/12/28 07:57:22;;;;;;;7.57;6.80;;;;;;;20.29;46.35;97775.59;4992861;28;20219;-25
2023/12/28 07:59:48;;;;;;;9.47;6.47;;;;;;;20.29;46.98;97773.06;4992420;28;20211;-25
2023/12/28 08:02:15;;;;;;;8.00;6.27;;;;;;;20.29;47.49;97765.41;4988652;28;20230;-25
2023/12/28 08:04:45;;;;;;;7.27;6.13;;;;;;;20.30;47.98;97781.56;4988634;28;20207;-25
2023/12/28 08:07:12;;;;;;;7.50;6.27;;;;;;;20.30;48.38;97786.66;4992543;28;20202;-25
2023/12/28 08:09:39;;;;;;;6.70;6.00;;;;;;;20.30;48.46;97784.09;4991183;28;20628;-25
2023/12/28 08:12:05;;;;;;;6.10;5.50;;;;;;;20.30;48.51;97782.44;4992141;28;20231;-25
2023/12/28 08:14:32;;;;;;;6.37;5.70;;;;;;;20.32;48.52;97796.13;4992299;28;20685;-25
2023/12/28 08:16:59;;;;;;;6.00;5.40;;;;;;;20.33;48.62;97784.22;4991766;28;20223;-32
2023/12/28 08:19:25;;;;;;;5.67;5.07;;;;;;;20.35;48.66;97787.72;4992728;28;20588;-25
2023/12/28 08:21:52;;;;;;;6.97;5.90;;;;;;;20.35;48.76;97780.06;4988939;28;20215;-25
2023/12/28 08:24:18;;;;;;;6.43;5.70;;;;;;;20.30;48.98;97774.78;4990139;28;20712;-25
2023/12/28 08:26:45;;;;;;;5.70;5.13;;;;;;;20.36;48.98;97780.13;4990372;28;20227;-25
2023/12/28 08:29:12;;;;;;;6.00;5.40;;;;;;;20.36;49.49;97787.78;4981860;28;20254;-25
2023/12/28 08:31:38;;;;;;;7.87;5.60;;;;;;;20.35;49.08;97780.94;4990220;28;20194;-25
2023/12/28 08:34:05;;;;;;;6.03;5.43;;;;;;;20.37;48.96;97791.22;4988299;28;20605;-25
2023/12/28 08:36:32;;;;;;;6.37;5.43;;;;;;;20.37;49.09;97794.59;4990510;28;20223;-25
2023/12/28 08:38:58;;;;;;;6.90;5.90;;;;;;;20.37;49.13;97791.22;4980769;28;20196;-25
2023/12/28 08:41:26;;;;;;;6.10;5.50;;;;;;;20.38;49.16;97795.50;4984232;28;20203;-25
2023/12/28 08:43:54;;;;;;;7.13;5.13;;;;;;;20.37;49.33;97786.94;4989991;28;20580;-25
2023/12/28 08:46:24;;;;;;;5.30;4.80;;;;;;;20.37;49.40;97784.41;4986537;28;20223;-25
2023/12/28 08:48:51;;;;;;;6.13;5.27;;;;;;;20.37;49.66;97789.50;4989652;28;21457;-25
2023/12/28 08:51:18;;;;;;;6.90;5.13;;;;;;;20.36;49.32;97782.66;4991477;28;20199;-25
2023/12/28 08:53:44;;;;;;;5.80;5.20;;;;;;;20.34;47.67;97791.09;4991844;28;20559;-26
2023/12/28 08:56:17;;;;;;;5.97;5.17;;;;;;;20.31;45.32;97794.38;4986604;28;20231;-25
2023/12/28 08:58:45;;;;;;;7.70;5.23;;;;;;;20.28;43.98;97790.84;4987122;28;20347;-25
2023/12/28 09:01:21;;;;;;;9.07;6.23;;;;;;;20.26;43.42;97789.91;4985118;28;20203;-25
2023/12/28 09:03:49;;;;;;;6.53;5.77;;;;;;;20.25;44.43;97806.06;4982140;28;20214;-25
2023/12/28 09:06:16;;;;;;;5.77;5.10;;;;;;;20.24;45.58;97806.84;4991778;28;20215;-25
2023/12/28 09:08:44;;;;;;;7.67;5.73;;;;;;;20.24;46.95;97809.41;4992508;28;20237;-25
2023/12/28 09:11:11;;;;;;;6.47;5.20;;;;;;;20.24;47.30;97811.94;4986209;28;20207;-25
2023/12/28 09:13:41;;;;;;;5.20;4.70;;;;;;;20.24;47.69;97812.81;4992272;28;20206;-25
2023/12/28 09:16:09;;;;;;;7.57;5.40;;;;;;;20.26;47.69;97818.00;4987688;28;20219;-25
2023/12/28 09:18:39;;;;;;;5.37;4.87;;;;;;;20.26;47.88;97830.75;4983820;28;20216;-25
2023/12/28 09:21:07;;;;;;;5.67;5.17;;;;;;;20.28;48.13;97831.69;4986915;28;20230;-25
2023/12/28 09:23:34;;;;;;;6.77;4.83;;;;;;;20.27;48.16;97830.81;4988745;28;20239;-28
2023/12/28 09:26:03;;;;;;;6.80;5.40;;;;;;;20.28;48.34;97837.66;4987595;28;20227;-25
2023/12/28 09:28:30;;;;;;;5.63;5.03;;;;;;;20.28;48.24;97824.88;4990932;28;20210;-25
2023/12/28 09:30:56;;;;;;;5.40;4.90;;;;;;;20.28;48.39;97824.88;4980143;28;20210;-25
2023/12/28 09:33:24;;;;;;;6.90;5.30;;;;;;;20.28;48.53;97818.94;4987060;28;20238;-25
2023/12/28 09:35:50;;;;;;;5.63;4.63;;;;;;;20.29;48.62;97820.66;4984308;28;20273;-25
2023/12/28 09:38:18;;;;;;;5.90;4.73;;;;;;;20.28;48.86;97814.69;4982770;28;20230;-25
2023/12/28 09:40:45;;;;;;;6.40;5.33;;;;;;;20.28;48.92;97814.69;4989348;28;20214;-25
2023/12/28 09:43:24;;;;;;;5.37;4.63;;;;;;;20.29;49.05;97818.09;4983386;28;20654;-25
2023/12/28 09:45:52;;;;;;;6.53;5.60;;;;;;;20.29;49.19;97819.00;4984447;28;20590;-25
2023/12/28 09:48:20;;;;;;;8.67;4.60;;;;;;;20.28;49.13;97824.88;4983212;28;20198;-25
2023/12/28 09:50:51;;;;;;;7.33;5.20;;;;;;;20.29;49.30;97820.66;4989914;28;20203;-25
2023/12/28 09:53:17;;;;;;;12.93;5.30;;;;;;;20.28;49.20;97816.38;4994702;28;20249;-25
2023/12/28 09:55:44;;;;;;;5.67;4.73;;;;;;;20.23;49.17;97807.66;4994975;28;20234;-25
2023/12/28 09:58:11;;;;;;;8.33;5.10;;;;;;;20.30;49.36;97817.28;4972897;28;20203;-25
2023/12/28 10:00:38;;;;;;;7.23;4.90;;;;;;;20.31;49.30;97814.78;4989797;28;20210;-25
2023/12/28 10:03:04;;;;;;;6.43;4.93;;;;;;;20.32;49.25;97810.56;4984443;28;20466;-25
2023/12/28 10:05:31;;;;;;;6.37;5.00;;;;;;;20.32;49.53;97805.47;4989288;28;20222;-28
2023/12/28 10:07:58;;;;;;;5.70;4.83;;;;;;;20.33;49.35;97808.06;4992190;28;20278;-25
2023/12/28 10:10:24;;;;;;;5.03;4.20;;;;;;;20.32;49.38;97803.78;4988661;28;20203;-25
2023/12/28 10:12:51;;;;;;;5.97;4.63;;;;;;;20.33;49.47;97802.97;4987214;28;20234;-25
2023/12/28 10:15:18;;;;;;;5.83;5.23;;;;;;;20.33;49.34;97808.06;4992326;28;20219;-25
2023/12/28 10:17:45;;;;;;;6.53;4.57;;;;;;;20.31;49.45;97799.47;4995069;28;20298;-25
2023/12/28 10:20:13;;;;;;;5.47;4.77;;;;;;;20.31;48.43;97802.03;4994589;28;20302;-25
2023/12/28 10:22:40;;;;;;;6.13;5.17;;;;;;;20.30;45.89;97796.88;4994861;28;20239;-25
2023/12/28 10:25:07;;;;;;;5.63;5.00;;;;;;;20.28;46.04;97794.25;4990582;28;20226;-25
2023/12/28 10:27:38;;;;;;;7.17;5.57;;;;;;;20.26;47.05;97785.69;4988633;28;20635;-25
2023/12/28 10:30:05;;;;;;;5.00;4.50;;;;;;;20.27;47.60;97774.66;4977375;28;20238;-26
2023/12/28 10:32:32;;;;;;;10.50;5.63;;;;;;;20.28;48.01;97778.09;4993054;28;20469;-25
2023/12/28 10:34:59;;;;;;;8.30;4.90;;;;;;;20.27;48.36;97764.44;4988501;28;20207;-25
2023/12/28 10:37:26;;;;;;;6.93;4.90;;;;;;;20.27;48.45;97764.44;4993710;28;20223;-25
2023/12/28 10:39:53;;;;;;;5.47;4.77;;;;;;;20.26;48.39;97754.19;4985566;28;20200;-25
2023/12/28 10:43:01;;;;;;;5.30;4.80;;;;;;;20.29;48.48;97756.84;4988098;28;20198;-25
2023/12/28 10:45:32;;;;;;;6.10;4.67;;;;;;;20.29;48.68;97757.75;4990355;28;20416;-25
2023/12/28 10:48:01;;;;;;;6.43;4.30;;;;;;;20.30;48.63;97756.03;4994775;28;20203;-25
2023/12/28 10:50:29;;;;;;;5.30;4.23;;;;;;;20.30;48.86;97756.03;4993787;28;20203;-25
2023/12/28 10:53:00;;;;;;;5.50;4.40;;;;;;;20.30;48.75;97756.03;4990678;28;20199;-27
2023/12/28 10:55:32;;;;;;;5.50;4.57;;;;;;;20.30;49.06;97751.81;4984968;28;20223;-25
2023/12/28 10:58:09;;;;;;;5.73;4.60;;;;;;;20.27;49.21;97745.72;4977321;28;20230;-25
2023/12/28 11:00:36;;;;;;;5.10;4.60;;;;;;;20.30;49.19;97750.94;4993145;28;20205;-25
2023/12/28 11:03:03;;;;;;;5.53;4.20;;;;;;;20.28;49.23;97750.88;4989848;28;20203;-25
2023/12/28 11:05:30;;;;;;;5.37;4.40;;;;;;;20.29;49.33;97728.78;4992904;28;20223;-27
2023/12/28 11:07:58;;;;;;;5.37;4.87;;;;;;;20.26;49.16;97724.44;4991255;28;20206;-25
2023/12/28 11:10:24;;;;;;;5.30;4.43;;;;;;;20.27;49.34;97722.75;4975765;28;20257;-25
2023/12/28 11:12:54;;;;;;;5.60;4.47;;;;;;;20.28;49.33;97717.69;4991990;28;20265;-25
2023/12/28 11:15:21;;;;;;;6.17;4.67;;;;;;;20.27;49.26;97715.97;4992785;28;20226;-25
2023/12/28 11:17:48;;;;;;;4.47;4.07;;;;;;;20.27;49.29;97710.84;4993746;28;20215;-25
2023/12/28 11:20:15;;;;;;;6.23;4.63;;;;;;;20.27;49.25;97700.66;4994051;28;20206;-25
2023/12/28 11:22:41;;;;;;;6.70;3.90;;;;;;;20.28;49.21;97710.03;4991061;28;20199;-25
2023/12/28 11:25:16;;;;;;;5.37;4.07;;;;;;;20.29;49.31;97709.25;4988459;28;20250;-25
2023/12/28 11:27:42;;;;;;;4.57;4.17;;;;;;;20.30;49.47;97717.75;4989756;28;20199;-25
2023/12/28 11:30:10;;;;;;;4.77;4.27;;;;;;;20.31;49.41;97719.50;4992108;28;20294;-25
2023/12/28 11:32:37;;;;;;;5.00;4.03;;;;;;;20.31;49.54;97729.72;4994682;28;20222;-25
2023/12/28 11:35:06;;;;;;;5.10;4.60;;;;;;;20.30;49.44;97730.50;4986605;28;20218;-25